Time;durP1;ratioP1;P1;durP2;ratioP2;P2;SDS_P1;SDS_P2;PMS_P1;PMS_P2;Temp;Humidity;BMP_temperature;BMP_pressure;BME280_temperature;BME280_humidity;BME280_pressure;Samples;Min_cycle;Max_cycle;Signal;HPM_P1;HPM_P2
2023/07/25 00:00:26;;;;;;;;;;;;;;;21.61;61.29;98879.86;104128;278;98203;-54
2023/07/25 00:03:18;;;;;;;;;;;;;;;21.58;61.52;98891.13;104094;278;120774;-54
2023/07/25 00:05:50;;;;;;;;;;;;;;;21.54;61.65;98890.14;104108;278;103613;-54
2023/07/25 00:08:22;;;;;;;;;;;;;;;21.48;61.89;98887.48;104119;278;113670;-54
2023/07/25 00:10:55;;;;;;;;;;;;;;;21.46;62.13;98883.39;104100;278;93478;-52
2023/07/25 00:13:28;;;;;;;;;;;;;;;21.43;62.13;98884.91;104138;278;96814;-53
2023/07/25 00:16:00;;;;;;;;;;;;;;;21.39;62.30;98886.23;104115;278;121357;-55
2023/07/25 00:18:32;;;;;;;;;;;;;;;21.36;62.36;98886.27;104110;278;105776;-55
2023/07/25 00:21:05;;;;;;;;;;;;;;;21.34;62.64;98888.63;104079;279;113437;-54
2023/07/25 00:23:37;;;;;;;;;;;;;;;21.33;62.61;98887.80;104544;278;94984;-56
2023/07/25 00:26:09;;;;;;;;;;;;;;;21.32;62.79;98892.52;104547;278;97363;-56
2023/07/25 00:28:41;;;;;;;;;;;;;;;21.31;62.79;98892.17;104550;278;121722;-54
2023/07/25 00:31:14;;;;;;;;;;;;;;;21.31;63.04;98884.48;104538;278;103889;-54
2023/07/25 00:33:46;;;;;;;;;;;;;;;21.31;63.07;98891.29;104112;278;114479;-52
2023/07/25 00:36:18;;;;;;;;;;;;;;;21.32;63.24;98889.23;104117;278;94358;-52
2023/07/25 00:38:50;;;;;;;;;;;;;;;21.32;63.37;98882.86;104129;278;97695;-54
2023/07/25 00:41:22;;;;;;;;;;;;;;;21.32;63.48;98874.30;104538;278;122267;-54
2023/07/25 00:43:54;;;;;;;;;;;;;;;21.29;63.64;98879.78;104113;267;105398;-55
2023/07/25 00:46:27;;;;;;;;;;;;;;;21.24;63.86;98886.29;104068;278;114333;-54
2023/07/25 00:49:00;;;;;;;;;;;;;;;21.20;63.94;98885.84;104119;278;93420;-55
2023/07/25 00:51:32;;;;;;;;;;;;;;;21.15;64.04;98889.42;104584;278;98352;-55
2023/07/25 00:54:05;;;;;;;;;;;;;;;21.11;64.13;98884.48;104106;278;121646;-54
2023/07/25 00:56:37;;;;;;;;;;;;;;;21.06;64.28;98891.82;104116;278;104620;-54
2023/07/25 00:59:09;;;;;;;;;;;;;;;21.02;64.49;98890.72;104100;278;114019;-54
2023/07/25 01:01:42;;;;;;;;;;;;;;;20.99;64.74;98896.18;104554;278;95194;-54
2023/07/25 01:04:14;;;;;;;;;;;;;;;20.97;65.44;98890.00;104580;278;98065;-54
2023/07/25 01:06:47;;;;;;;;;;;;;;;21.00;65.47;98896.16;104117;279;120635;-54
2023/07/25 01:09:36;;;;;;;;;;;;;;;21.04;65.62;98889.48;104085;278;104941;-54
2023/07/25 01:12:10;;;;;;;;;;;;;;;21.09;65.75;98892.52;104070;279;112418;-53
2023/07/25 01:14:43;;;;;;;;;;;;;;;21.14;65.83;98895.14;104088;279;96792;-54
2023/07/25 01:17:18;;;;;;;;;;;;;;;21.19;65.75;98888.71;104076;279;97606;-53
2023/07/25 01:19:52;;;;;;;;;;;;;;;21.20;66.04;98887.34;104087;279;121540;-52
2023/07/25 01:22:26;;;;;;;;;;;;;;;21.18;66.19;98879.70;104109;279;105185;-52
2023/07/25 01:24:58;;;;;;;;;;;;;;;21.21;66.23;98880.11;104089;279;113634;-54
2023/07/25 01:27:31;;;;;;;;;;;;;;;21.21;66.17;98882.15;104068;279;94288;-54
2023/07/25 01:30:04;;;;;;;;;;;;;;;21.20;66.23;98876.61;104086;279;95472;-54
2023/07/25 01:32:36;;;;;;;;;;;;;;;21.19;66.27;98874.64;104495;279;120728;-54
2023/07/25 01:35:10;;;;;;;;;;;;;;;21.13;66.42;98883.52;104129;279;106146;-54
2023/07/25 01:37:42;;;;;;;;;;;;;;;21.08;66.60;98889.11;104092;279;114888;-54
2023/07/25 01:40:15;;;;;;;;;;;;;;;21.05;66.60;98894.67;103910;279;93348;-55
2023/07/25 01:42:47;;;;;;;;;;;;;;;21.02;66.71;98888.63;104131;279;96145;-55
2023/07/25 01:45:20;;;;;;;;;;;;;;;20.97;66.70;98889.02;104113;279;122055;-56
2023/07/25 01:47:52;;;;;;;;;;;;;;;20.90;66.98;98882.63;104082;279;105880;-56
2023/07/25 01:50:25;;;;;;;;;;;;;;;20.83;67.02;98878.98;104453;279;114343;-52
2023/07/25 01:52:57;;;;;;;;;;;;;;;20.74;67.11;98880.95;104457;279;93319;-52
2023/07/25 01:55:29;;;;;;;;;;;;;;;20.65;67.53;98881.05;104075;279;97914;-52
2023/07/25 01:58:02;;;;;;;;;;;;;;;20.57;67.62;98870.05;104052;279;120491;-52
2023/07/25 02:00:34;;;;;;;;;;;;;;;20.50;67.74;98867.16;104062;279;106102;-56
2023/07/25 02:03:08;;;;;;;;;;;;;;;20.42;67.98;98872.80;104058;279;114876;-56
2023/07/25 02:05:40;;;;;;;;;;;;;;;20.37;68.11;98875.11;104461;279;94015;-53
2023/07/25 02:08:14;;;;;;;;;;;;;;;20.31;68.43;98874.73;104081;279;97601;-53
2023/07/25 02:10:46;;;;;;;;;;;;;;;20.27;68.62;98871.85;104483;279;119432;-56
2023/07/25 02:13:18;;;;;;;;;;;;;;;20.23;68.84;98877.58;104081;279;106085;-56
2023/07/25 02:15:51;;;;;;;;;;;;;;;20.19;69.13;98880.19;104075;279;114940;-54
2023/07/25 02:18:23;;;;;;;;;;;;;;;20.16;69.26;98879.83;104085;279;96156;-54
2023/07/25 02:20:55;;;;;;;;;;;;;;;20.11;69.49;98873.70;104088;279;97799;-53
2023/07/25 02:23:28;;;;;;;;;;;;;;;20.09;69.50;98873.20;104454;279;122073;-54
2023/07/25 02:26:00;;;;;;;;;;;;;;;20.08;69.69;98873.27;104471;279;105721;-54
2023/07/25 02:28:32;;;;;;;;;;;;;;;20.05;69.95;98868.58;104074;279;112817;-54
2023/07/25 02:31:04;;;;;;;;;;;;;;;20.06;70.13;98867.42;104452;279;94707;-54
2023/07/25 02:33:36;;;;;;;;;;;;;;;20.05;70.33;98869.14;104511;279;96782;-52
2023/07/25 02:36:08;;;;;;;;;;;;;;;20.04;70.25;98866.68;104091;279;121388;-52
2023/07/25 02:38:41;;;;;;;;;;;;;;;20.03;70.37;98858.79;104079;279;105168;-52
2023/07/25 02:41:13;;;;;;;;;;;;;;;20.03;70.60;98860.42;104025;279;114849;-52
2023/07/25 02:43:45;;;;;;;;;;;;;;;20.03;70.54;98856.92;104051;279;96392;-54
2023/07/25 02:46:18;;;;;;;;;;;;;;;20.05;70.49;98858.56;104049;279;97241;-55
2023/07/25 02:48:50;;;;;;;;;;;;;;;20.03;70.60;98858.99;104438;279;121634;-57
2023/07/25 02:51:22;;;;;;;;;;;;;;;20.02;70.83;98862.25;104066;279;103321;-57
2023/07/25 02:53:54;;;;;;;;;;;;;;;20.01;70.83;98863.45;104482;279;114383;-54
2023/07/25 02:56:28;;;;;;;;;;;;;;;19.99;70.96;98868.59;104487;279;94984;-54
2023/07/25 02:59:00;;;;;;;;;;;;;;;19.98;71.08;98867.33;104500;279;97222;-55
2023/07/25 03:01:32;;;;;;;;;;;;;;;19.93;71.43;98867.38;104085;279;122484;-55
2023/07/25 03:04:05;;;;;;;;;;;;;;;19.92;71.45;98873.20;104121;279;105709;-52
2023/07/25 03:06:37;;;;;;;;;;;;;;;19.92;71.41;98881.02;104470;279;114639;-52
2023/07/25 03:09:09;;;;;;;;;;;;;;;19.92;71.55;98882.30;103832;280;93010;-55
2023/07/25 03:11:42;;;;;;;;;;;;;;;19.92;71.59;98878.83;104087;279;97339;-55
2023/07/25 03:14:14;;;;;;;;;;;;;;;19.92;71.62;98881.30;104077;279;122081;-52
2023/07/25 03:16:46;;;;;;;;;;;;;;;19.90;71.67;98883.45;104071;279;106059;-52
2023/07/25 03:19:18;;;;;;;;;;;;;;;19.87;71.79;98887.32;104498;279;114279;-55
2023/07/25 03:21:51;;;;;;;;;;;;;;;19.89;72.04;98888.07;104086;279;93544;-55
2023/07/25 03:24:23;;;;;;;;;;;;;;;19.92;72.01;98885.74;104121;279;97798;-57
2023/07/25 03:26:55;;;;;;;;;;;;;;;19.94;72.01;98885.62;104466;279;121465;-57
2023/07/25 03:29:27;;;;;;;;;;;;;;;19.95;72.13;98885.39;104088;279;104537;-55
2023/07/25 03:32:00;;;;;;;;;;;;;;;19.98;72.29;98884.11;104077;283;114029;-55
2023/07/25 03:34:32;;;;;;;;;;;;;;;20.03;72.24;98889.33;104065;278;96200;-52
2023/07/25 03:37:05;;;;;;;;;;;;;;;20.08;72.52;98892.91;104467;279;97010;-53
2023/07/25 03:39:37;;;;;;;;;;;;;;;20.14;72.37;98888.85;104261;279;122217;-55
2023/07/25 03:42:09;;;;;;;;;;;;;;;20.22;72.25;98888.50;104071;279;104372;-55
2023/07/25 03:44:41;;;;;;;;;;;;;;;20.36;72.37;98886.02;104470;279;114574;-54
2023/07/25 03:47:14;;;;;;;;;;;;;;;20.70;72.14;98892.73;104058;279;97033;-52
2023/07/25 03:49:47;;;;;;;;;;;;;;;21.78;71.50;98888.09;104109;279;97408;-57
2023/07/25 03:52:19;;;;;;;;;;;;;;;23.05;69.87;98893.37;104061;279;122110;-57
2023/07/25 03:54:52;;;;;;;;;;;;;;;24.09;68.17;98891.14;104095;279;104500;-53
2023/07/25 03:57:24;;;;;;;;;;;;;;;24.95;66.56;98898.05;104067;279;115049;-53
2023/07/25 03:59:56;;;;;;;;;;;;;;;25.29;65.01;98900.73;104118;279;92416;-54
2023/07/25 04:02:28;;;;;;;;;;;;;;;25.39;63.86;98905.65;104091;279;97975;-54
2023/07/25 04:05:01;;;;;;;;;;;;;;;25.46;63.11;98905.81;104064;279;120317;-54
2023/07/25 04:07:34;;;;;;;;;;;;;;;25.84;62.34;98908.05;104074;279;104593;-54
2023/07/25 04:10:07;;;;;;;;;;;;;;;26.51;61.26;98906.80;104081;279;113867;-54
2023/07/25 04:12:39;;;;;;;;;;;;;;;26.35;60.41;98909.59;104043;279;92699;-54
2023/07/25 04:15:31;;;;;;;;;;;;;;;26.05;59.72;98904.01;104068;279;96858;-53
2023/07/25 04:18:04;;;;;;;;;;;;;;;26.59;59.09;98898.73;103928;279;120682;-53
2023/07/25 04:20:36;;;;;;;;;;;;;;;26.30;58.79;98907.83;104505;279;105735;-55
2023/07/25 04:23:08;;;;;;;;;;;;;;;25.78;58.91;98908.93;104080;279;113491;-55
2023/07/25 04:25:40;;;;;;;;;;;;;;;25.25;59.03;98915.80;104060;279;93078;-53
2023/07/25 04:28:12;;;;;;;;;;;;;;;24.82;59.59;98916.34;104494;279;98047;-53
2023/07/25 04:30:45;;;;;;;;;;;;;;;24.49;60.25;98916.20;104489;279;121582;-55
2023/07/25 04:33:17;;;;;;;;;;;;;;;24.32;60.51;98924.79;104096;279;104433;-56
2023/07/25 04:35:49;;;;;;;;;;;;;;;24.27;60.67;98928.55;103865;280;114671;-52
2023/07/25 04:38:22;;;;;;;;;;;;;;;24.22;60.91;98924.27;104507;279;94666;-53
2023/07/25 04:40:56;;;;;;;;;;;;;;;24.14;61.00;98923.63;104116;279;96140;-55
2023/07/25 04:43:28;;;;;;;;;;;;;;;24.06;61.38;98926.39;104513;279;120768;-54
2023/07/25 04:46:00;;;;;;;;;;;;;;;24.05;61.59;98926.41;104108;279;103974;-54
2023/07/25 04:48:32;;;;;;;;;;;;;;;24.09;61.40;98927.44;104504;279;114579;-54
2023/07/25 04:51:05;;;;;;;;;;;;;;;24.04;61.36;98929.29;104095;279;94715;-56
2023/07/25 04:53:38;;;;;;;;;;;;;;;24.03;61.41;98935.69;104131;279;95648;-54
2023/07/25 04:56:10;;;;;;;;;;;;;;;24.11;61.31;98938.59;104091;279;121077;-53
2023/07/25 04:58:43;;;;;;;;;;;;;;;24.41;61.17;98942.77;104107;279;104468;-57
2023/07/25 05:01:16;;;;;;;;;;;;;;;25.23;60.64;98938.43;104075;279;114371;-53
2023/07/25 05:03:49;;;;;;;;;;;;;;;26.20;59.01;98941.02;104087;279;94945;-53
2023/07/25 05:06:22;;;;;;;;;;;;;;;26.31;57.99;98942.08;104088;279;97177;-58
2023/07/25 05:08:54;;;;;;;;;;;;;;;26.10;57.67;98945.85;104082;279;121536;-55
2023/07/25 05:11:27;;;;;;;;;;;;;;;25.83;57.66;98942.08;104115;279;105963;-55
2023/07/25 05:13:59;;;;;;;;;;;;;;;26.16;57.62;98943.52;104507;279;115115;-58
2023/07/25 05:16:32;;;;;;;;;;;;;;;26.85;56.65;98945.04;104078;279;93923;-58
2023/07/25 05:19:04;;;;;;;;;;;;;;;26.92;55.93;98950.14;103524;279;535411;-55
2023/07/25 05:21:36;;;;;;;;;;;;;;;26.86;55.39;98947.45;104018;282;119718;-55
2023/07/25 05:24:09;;;;;;;;;;;;;;;27.23;55.15;98950.16;104121;279;106042;-56
2023/07/25 05:26:41;;;;;;;;;;;;;;;28.14;54.36;98954.30;104098;279;114357;-66
2023/07/25 05:29:14;;;;;;;;;;;;;;;29.15;53.16;98953.23;104094;279;93911;-66
2023/07/25 05:31:46;;;;;;;;;;;;;;;30.11;51.45;98960.04;104534;279;96817;-65
2023/07/25 05:34:18;;;;;;;;;;;;;;;30.99;49.80;98959.77;104133;279;120111;-63
2023/07/25 05:36:50;;;;;;;;;;;;;;;30.91;48.61;98952.94;104115;279;105896;-63
2023/07/25 05:39:23;;;;;;;;;;;;;;;30.51;47.68;98951.20;104519;279;115074;-65
2023/07/25 05:41:56;;;;;;;;;;;;;;;29.46;47.47;98953.15;104103;279;93716;-65
2023/07/25 05:44:28;;;;;;;;;;;;;;;28.23;48.04;98953.02;104118;283;97376;-66
2023/07/25 05:47:04;;;;;;;;;;;;;;;28.19;49.00;98951.85;104077;279;120839;-65
2023/07/25 05:49:37;;;;;;;;;;;;;;;30.14;48.49;98952.13;104461;283;106918;-65
2023/07/25 05:52:10;;;;;;;;;;;;;;;32.09;46.22;98948.15;104090;279;114680;-65
2023/07/25 05:54:42;;;;;;;;;;;;;;;33.37;44.64;98954.73;104491;279;95171;-63
2023/07/25 05:57:14;;;;;;;;;;;;;;;34.18;43.10;98955.96;103854;281;96183;-58
2023/07/25 05:59:46;;;;;;;;;;;;;;;35.22;41.40;98959.80;104099;279;121107;-52
2023/07/25 06:02:19;;;;;;;;;;;;;;;35.91;40.20;98960.02;104109;279;104989;-52
2023/07/25 06:04:51;;;;;;;;;;;;;;;36.48;38.89;98956.48;104529;279;113536;-56
2023/07/25 06:07:24;;;;;;;;;;;;;;;36.22;37.80;98957.38;104105;279;93695;-56
2023/07/25 06:09:56;;;;;;;;;;;;;;;35.12;37.76;98955.68;104119;279;97245;-55
2023/07/25 06:12:30;;;;;;;;;;;;;;;34.94;38.11;98960.00;103929;276;122248;-55
2023/07/25 06:15:02;;;;;;;;;;;;;;;35.76;37.28;98960.15;103936;280;105991;-57
2023/07/25 06:17:37;;;;;;;;;;;;;;;36.40;36.65;98953.95;104105;279;113998;-56
2023/07/25 06:20:11;;;;;;;;;;;;;;;37.14;35.98;98952.23;104106;279;92662;-52
2023/07/25 06:22:43;;;;;;;;;;;;;;;37.79;34.97;98950.92;104080;279;98289;-51
2023/07/25 06:25:16;;;;;;;;;;;;;;;38.27;34.22;98946.70;104483;279;121926;-54
2023/07/25 06:27:48;;;;;;;;;;;;;;;38.55;33.39;98948.52;104492;279;104849;-54
2023/07/25 06:30:21;;;;;;;;;;;;;;;38.93;32.59;98951.71;104061;279;113750;-54
2023/07/25 06:32:53;;;;;;;;;;;;;;;39.27;31.80;98954.63;103800;279;95270;-53
2023/07/25 06:35:26;;;;;;;;;;;;;;;39.36;31.37;98956.90;104071;279;97858;-57
2023/07/25 06:37:58;;;;;;;;;;;;;;;39.79;31.30;98954.58;104481;279;121097;-56
2023/07/25 06:40:30;;;;;;;;;;;;;;;39.90;30.92;98953.66;104088;279;105605;-57
2023/07/25 06:43:03;;;;;;;;;;;;;;;40.12;30.70;98955.31;104116;279;114089;-56
2023/07/25 06:45:35;;;;;;;;;;;;;;;40.43;29.77;98950.73;104080;279;94015;-57
2023/07/25 06:48:08;;;;;;;;;;;;;;;40.56;29.23;98949.67;104121;279;97475;-57
2023/07/25 06:50:41;;;;;;;;;;;;;;;40.46;28.69;98954.23;104502;279;121888;-52
2023/07/25 06:53:13;;;;;;;;;;;;;;;40.66;28.52;98962.49;104505;279;105481;-52
2023/07/25 06:55:47;;;;;;;;;;;;;;;40.95;27.91;98959.51;104132;279;114285;-57
2023/07/25 06:58:19;;;;;;;;;;;;;;;40.98;27.37;98952.80;104094;279;94312;-54
2023/07/25 07:00:52;;;;;;;;;;;;;;;40.89;27.14;98951.65;104126;279;96572;-57
2023/07/25 07:03:24;;;;;;;;;;;;;;;41.03;26.92;98958.16;104085;279;121546;-57
2023/07/25 07:05:57;;;;;;;;;;;;;;;41.25;26.89;98968.18;104530;279;104916;-52
2023/07/25 07:08:30;;;;;;;;;;;;;;;41.07;26.52;98976.71;104106;279;113701;-54
2023/07/25 07:11:02;;;;;;;;;;;;;;;41.16;26.57;98980.79;104097;279;94379;-55
2023/07/25 07:13:34;;;;;;;;;;;;;;;41.41;26.43;98980.67;104066;279;98202;-54
2023/07/25 07:16:08;;;;;;;;;;;;;;;41.19;26.10;98981.39;104082;279;120553;-54
2023/07/25 07:18:41;;;;;;;;;;;;;;;41.33;26.30;98978.11;104115;279;105862;-55
2023/07/25 07:21:13;;;;;;;;;;;;;;;41.75;26.08;98979.83;104051;279;114931;-54
2023/07/25 07:23:46;;;;;;;;;;;;;;;42.01;25.66;98982.61;103903;279;94333;-55
2023/07/25 07:26:19;;;;;;;;;;;;;;;41.74;25.58;98981.30;104519;279;98079;-54
2023/07/25 07:28:52;;;;;;;;;;;;;;;41.73;25.34;98981.40;104063;279;121866;-55
2023/07/25 07:31:25;;;;;;;;;;;;;;;41.97;25.65;98987.07;104098;279;105666;-54
2023/07/25 07:34:14;;;;;;;;;;;;;;;42.05;25.38;98989.10;104127;279;114603;-54
2023/07/25 07:36:48;;;;;;;;;;;;;;;41.94;25.24;98989.05;104079;279;94477;-55
2023/07/25 07:39:20;;;;;;;;;;;;;;;41.93;25.29;98996.53;104126;279;97577;-53
2023/07/25 07:41:52;;;;;;;;;;;;;;;42.20;24.83;98996.12;104094;279;120516;-53
2023/07/25 07:44:25;;;;;;;;;;;;;;;42.23;25.08;98993.39;104114;279;103440;-55
2023/07/25 07:46:57;;;;;;;;;;;;;;;42.17;24.92;98994.06;104504;279;113995;-55
2023/07/25 07:49:30;;;;;;;;;;;;;;;42.04;24.64;98997.95;104099;279;94416;-55
2023/07/25 07:52:04;;;;;;;;;;;;;;;42.20;24.64;98996.44;104531;279;96958;-55
2023/07/25 07:54:37;;;;;;;;;;;;;;;42.19;24.53;98993.45;103831;279;121695;-54
2023/07/25 07:57:10;;;;;;;;;;;;;;;42.23;24.53;98984.40;103852;279;105631;-54
2023/07/25 07:59:45;;;;;;;;;;;;;;;42.33;24.27;98987.92;104494;279;115241;-53
2023/07/25 08:02:19;;;;;;;;;;;;;;;42.11;24.62;98990.27;104110;279;92415;-53
2023/07/25 08:04:51;;;;;;;;;;;;;;;41.91;24.61;98999.73;104086;279;97216;-55
2023/07/25 08:07:24;;;;;;;;;;;;;;;41.79;24.20;99007.98;104076;279;121263;-55
2023/07/25 08:09:57;;;;;;;;;;;;;;;42.02;24.42;99002.86;104093;279;105277;-53
2023/07/25 08:12:29;;;;;;;;;;;;;;;41.70;24.29;98997.67;104055;279;113957;-53
2023/07/25 08:15:01;;;;;;;;;;;;;;;41.43;24.35;98988.09;104073;279;94510;-55
2023/07/25 08:17:34;;;;;;;;;;;;;;;41.46;24.20;98988.02;104113;279;97491;-55
2023/07/25 08:20:08;;;;;;;;;;;;;;;41.59;24.08;98997.13;104104;279;121872;-56
2023/07/25 08:22:40;;;;;;;;;;;;;;;41.38;23.98;99002.33;104102;279;105976;-56
2023/07/25 08:25:13;;;;;;;;;;;;;;;41.32;23.88;99009.13;104054;279;113452;-54
2023/07/25 08:27:45;;;;;;;;;;;;;;;41.35;23.99;99010.98;104067;279;93829;-54
2023/07/25 08:30:18;;;;;;;;;;;;;;;41.31;23.63;99006.55;104128;279;97870;-57
2023/07/25 08:32:51;;;;;;;;;;;;;;;40.41;23.95;99013.52;104104;279;121510;-56
2023/07/25 08:35:23;;;;;;;;;;;;;;;40.59;24.20;99018.30;104516;279;104837;-54
2023/07/25 08:37:56;;;;;;;;;;;;;;;41.01;24.05;99007.33;104493;279;114872;-54
2023/07/25 08:40:28;;;;;;;;;;;;;;;41.14;24.06;98997.99;104471;279;94368;-54
2023/07/25 08:43:04;;;;;;;;;;;;;;;40.94;23.78;98990.51;104084;279;96729;-54
2023/07/25 08:45:38;;;;;;;;;;;;;;;40.31;24.17;98994.85;104482;279;122569;-52
2023/07/25 08:48:27;;;;;;;;;;;;;;;39.82;24.53;98991.24;104477;279;106545;-53
2023/07/25 08:51:19;;;;;;;;;;;;;;;40.11;25.15;98980.94;104068;279;113816;-54
2023/07/25 08:53:57;;;;;;;;;;;;;;;39.25;24.85;98971.41;104104;279;95117;-54
2023/07/25 08:56:30;;;;;;;;;;;;;;;38.33;25.66;98969.50;104066;279;97308;-54
2023/07/25 08:59:03;;;;;;;;;;;;;;;37.84;26.01;98976.86;104119;279;121746;-54
2023/07/25 09:01:35;;;;;;;;;;;;;;;36.96;27.10;98983.41;104118;279;104484;-54
2023/07/25 09:04:10;;;;;;;;;;;;;;;37.39;27.87;98987.19;104075;279;115407;-52
2023/07/25 09:06:42;;;;;;;;;;;;;;;37.82;27.52;98981.13;103825;280;93920;-52
2023/07/25 09:09:14;;;;;;;;;;;;;;;37.90;27.22;98979.20;104478;279;97800;-53
2023/07/25 09:11:48;;;;;;;;;;;;;;;37.55;27.44;98976.56;104043;279;121674;-54
2023/07/25 09:14:21;;;;;;;;;;;;;;;36.51;27.15;98985.98;104101;279;105395;-54
2023/07/25 09:16:53;;;;;;;;;;;;;;;35.73;27.94;99004.05;104481;279;114612;-53
2023/07/25 09:19:25;;;;;;;;;;;;;;;34.86;28.55;99011.87;104092;279;94546;-55
2023/07/25 09:21:57;;;;;;;;;;;;;;;34.00;29.42;99018.02;104109;283;95521;-55
2023/07/25 09:24:38;;;;;;;;;;;;;;;33.57;30.35;99024.84;104496;279;120641;-57
2023/07/25 09:27:18;;;;;;;;;;;;;;;33.30;30.69;99030.05;103929;279;103926;-57
2023/07/25 09:29:53;;;;;;;;;;;;;;;32.83;31.15;99040.19;104499;279;114035;-57
2023/07/25 09:32:27;;;;;;;;;;;;;;;32.53;31.54;99037.72;103843;279;95484;-57
2023/07/25 09:35:00;;;;;;;;;;;;;;;32.49;32.20;99035.23;104131;279;97514;-54
2023/07/25 09:37:33;;;;;;;;;;;;;;;32.83;32.92;99030.84;104097;279;121980;-55
2023/07/25 09:40:09;;;;;;;;;;;;;;;32.77;32.48;99031.98;104112;279;105593;-52
2023/07/25 09:42:43;;;;;;;;;;;;;;;32.72;32.56;99021.58;104103;279;115000;-52
2023/07/25 09:45:16;;;;;;;;;;;;;;;32.73;32.78;99022.08;104129;279;93047;-54
2023/07/25 09:47:53;;;;;;;;;;;;;;;32.44;32.62;99029.21;104120;279;97253;-55
2023/07/25 09:50:34;;;;;;;;;;;;;;;31.87;32.88;99029.00;104537;279;121379;-58
2023/07/25 09:53:12;;;;;;;;;;;;;;;31.54;33.16;99032.76;103878;279;103623;-57
2023/07/25 09:55:45;;;;;;;;;;;;;;;31.33;33.89;99025.89;104089;279;115168;-53
2023/07/25 09:58:18;;;;;;;;;;;;;;;31.28;34.18;99018.52;104070;279;95240;-53
2023/07/25 10:00:51;;;;;;;;;;;;;;;31.26;34.24;99017.80;104087;279;97866;-55
2023/07/25 10:03:26;;;;;;;;;;;;;;;31.47;33.96;99017.02;104102;279;121831;-55
2023/07/25 10:05:59;;;;;;;;;;;;;;;31.70;34.07;99015.90;104500;279;106059;-57
2023/07/25 10:08:32;;;;;;;;;;;;;;;31.83;33.82;99021.02;104101;279;112943;-54
2023/07/25 10:11:05;;;;;;;;;;;;;;;31.96;33.60;99017.39;104067;279;93427;-54
2023/07/25 10:13:38;;;;;;;;;;;;;;;32.18;33.25;99018.64;104104;279;97773;-56
2023/07/25 10:16:14;;;;;;;;;;;;;;;32.16;32.84;99008.30;104070;279;121711;-56
2023/07/25 10:18:53;;;;;;;;;;;;;;;32.01;32.74;99012.90;104103;279;103934;-56
2023/07/25 10:21:46;;;;;;;;;;;;;;;31.97;32.90;99017.11;104509;279;114356;-56
2023/07/25 10:24:20;;;;;;;;;;;;;;;32.07;32.30;98999.41;104476;279;95354;-53
2023/07/25 10:26:59;;;;;;;;;;;;;;;32.27;32.42;99000.30;104095;279;97586;-54
2023/07/25 10:29:46;;;;;;;;;;;;;;;32.34;32.78;99003.11;103826;280;123628;-61
2023/07/25 10:32:39;;;;;;;;;;;;;;;32.21;32.55;98997.70;104040;279;105523;-62
2023/07/25 10:35:12;;;;;;;;;;;;;;;31.81;31.82;99006.27;104032;279;114895;-63
2023/07/25 10:37:47;;;;;;;;;;;;;;;31.62;32.18;99017.64;104018;279;92463;-57
2023/07/25 10:40:24;;;;;;;;;;;;;;;31.76;32.46;99011.27;104036;279;97078;-55
2023/07/25 10:43:00;;;;;;;;;;;;;;;31.76;32.17;99012.86;104035;268;122825;-56
2023/07/25 10:45:49;;;;;;;;;;;;;;;31.82;32.07;99010.14;104031;279;105928;-57
2023/07/25 10:48:36;;;;;;;;;;;;;;;31.84;31.82;99015.77;104013;279;112466;-62
2023/07/25 10:51:09;;;;;;;;;;;;;;;31.89;31.75;99008.54;104457;279;94246;-62
2023/07/25 10:53:43;;;;;;;;;;;;;;;31.71;31.80;99009.46;104070;279;97383;-60
2023/07/25 10:56:17;;;;;;;;;;;;;;;31.71;31.95;99011.73;104095;279;121269;-60
2023/07/25 10:59:07;;;;;;;;;;;;;;;31.86;31.83;99016.14;104104;279;104012;-60
2023/07/25 11:01:46;;;;;;;;;;;;;;;32.02;31.82;99018.13;104101;279;114920;-61
2023/07/25 11:04:37;;;;;;;;;;;;;;;31.88;31.68;99014.09;104110;279;92882;-62
2023/07/25 11:07:14;;;;;;;;;;;;;;;31.46;32.03;99016.02;104015;279;96486;-63
2023/07/25 11:09:48;;;;;;;;;;;;;;;31.06;32.14;99020.86;103925;280;123298;-59
2023/07/25 11:12:24;;;;;;;;;;;;;;;31.09;32.41;99013.63;104044;279;105940;-60
2023/07/25 11:14:57;;;;;;;;;;;;;;;31.29;32.32;99012.86;104008;279;113721;-62
2023/07/25 11:17:31;;;;;;;;;;;;;;;31.42;31.85;99014.23;104012;280;95211;-63
2023/07/25 11:20:15;;;;;;;;;;;;;;;31.36;31.96;99019.88;104068;279;97526;-61
2023/07/25 11:22:50;;;;;;;;;;;;;;;31.24;32.20;99016.25;104050;279;120835;-61
2023/07/25 11:25:25;;;;;;;;;;;;;;;31.21;32.53;99014.50;104464;279;105347;-63
2023/07/25 11:28:00;;;;;;;;;;;;;;;31.22;32.79;99024.32;104045;279;113572;-59
2023/07/25 11:30:34;;;;;;;;;;;;;;;31.07;32.62;99027.13;104022;279;94710;-58
2023/07/25 11:33:06;;;;;;;;;;;;;;;30.65;32.64;99028.94;104092;279;97149;-59
2023/07/25 11:35:39;;;;;;;;;;;;;;;29.99;32.97;99027.98;103903;278;121848;-62
2023/07/25 11:38:12;;;;;;;;;;;;;;;29.68;33.70;99023.71;104118;278;105457;-62
2023/07/25 11:40:50;;;;;;;;;;;;;;;29.93;33.85;99026.98;104114;278;113669;-61
2023/07/25 11:43:23;;;;;;;;;;;;;;;30.15;33.78;99028.32;104107;278;93329;-63
2023/07/25 11:45:56;;;;;;;;;;;;;;;30.14;33.85;99024.33;104137;278;96290;-62
2023/07/25 11:48:30;;;;;;;;;;;;;;;30.25;33.97;99016.37;104198;277;121513;-63
2023/07/25 11:51:03;;;;;;;;;;;;;;;30.19;33.92;99008.06;104212;277;105421;-62
2023/07/25 11:53:36;;;;;;;;;;;;;;;30.26;33.91;99003.88;104571;277;115237;-63
2023/07/25 11:56:09;;;;;;;;;;;;;;;30.41;33.87;99008.72;104190;277;93592;-63
2023/07/25 11:58:47;;;;;;;;;;;;;;;30.61;34.13;98999.61;104207;277;96720;-62
2023/07/25 12:01:19;;;;;;;;;;;;;;;30.79;33.80;99003.61;104187;277;121884;-63
2023/07/25 12:03:52;;;;;;;;;;;;;;;30.77;33.53;99003.48;104607;277;105927;-63
2023/07/25 12:06:34;;;;;;;;;;;;;;;30.35;33.63;99007.75;104178;277;114803;-62
2023/07/25 12:09:07;;;;;;;;;;;;;;;30.37;33.78;99011.07;104199;277;94750;-62
2023/07/25 12:11:46;;;;;;;;;;;;;;;30.54;33.82;99007.52;104215;277;97762;-62
2023/07/25 12:14:19;;;;;;;;;;;;;;;30.64;33.86;98998.49;104135;278;120747;-61
2023/07/25 12:16:54;;;;;;;;;;;;;;;30.54;33.89;98992.41;104108;278;105243;-62
2023/07/25 12:19:31;;;;;;;;;;;;;;;30.34;34.14;98991.32;104578;278;113416;-60
2023/07/25 12:22:09;;;;;;;;;;;;;;;30.29;34.25;98984.32;104097;279;94806;-60
2023/07/25 12:24:50;;;;;;;;;;;;;;;30.35;34.47;98982.42;104065;279;95661;-62
2023/07/25 12:27:24;;;;;;;;;;;;;;;30.34;34.30;98978.60;104076;279;122067;-60
2023/07/25 12:29:56;;;;;;;;;;;;;;;30.27;34.36;98980.02;104111;279;105331;-55
2023/07/25 12:32:30;;;;;;;;;;;;;;;30.27;34.56;98981.09;104105;278;113318;-57
2023/07/25 12:35:10;;;;;;;;;;;;;;;30.33;34.67;98975.59;104564;278;92378;-57
2023/07/25 12:37:42;;;;;;;;;;;;;;;30.29;34.80;98978.52;104113;278;98107;-57
2023/07/25 12:40:15;;;;;;;;;;;;;;;30.17;34.95;98970.66;104095;278;120076;-56
2023/07/25 12:42:48;;;;;;;;;;;;;;;30.04;34.95;98971.63;104072;278;104996;-56
2023/07/25 12:45:21;;;;;;;;;;;;;;;29.93;35.08;98965.18;104507;278;114417;-57
2023/07/25 12:47:53;;;;;;;;;;;;;;;29.82;35.12;98965.71;104068;278;92339;-57
2023/07/25 12:50:26;;;;;;;;;;;;;;;29.83;35.32;98968.36;104104;278;97444;-56
2023/07/25 12:52:58;;;;;;;;;;;;;;;29.91;35.01;98972.20;104104;278;121671;-56
2023/07/25 12:55:34;;;;;;;;;;;;;;;30.01;35.14;98965.26;104057;278;105539;-56
2023/07/25 12:58:07;;;;;;;;;;;;;;;30.14;34.87;98969.33;104517;278;114169;-56
2023/07/25 13:00:40;;;;;;;;;;;;;;;30.23;34.73;98970.20;104077;279;94739;-55
2023/07/25 13:03:13;;;;;;;;;;;;;;;30.26;34.90;98973.48;104097;279;97297;-56
2023/07/25 13:05:51;;;;;;;;;;;;;;;30.30;34.92;98975.29;104092;279;120858;-51
2023/07/25 13:08:25;;;;;;;;;;;;;;;30.37;34.78;98971.42;104093;279;105803;-51
2023/07/25 13:10:59;;;;;;;;;;;;;;;30.13;34.56;98959.48;104135;279;112189;-53
2023/07/25 13:13:32;;;;;;;;;;;;;;;29.93;34.73;98962.53;103869;279;95176;-52